createdAt,value
2018-05-31T00:00:52.864Z,7.70
2018-05-31T00:01:52.855Z,6.20
2018-05-31T00:02:52.851Z,6.20
2018-05-31T00:03:52.849Z,5.40
2018-05-31T00:04:52.843Z,6.60
2018-05-31T00:05:52.842Z,6.80
2018-05-31T00:06:52.837Z,5.90
2018-05-31T00:07:52.833Z,5.20
2018-05-31T00:08:52.831Z,7.60
2018-05-31T00:09:52.824Z,9.30
2018-05-31T00:10:52.819Z,7.10
2018-05-31T00:11:52.816Z,4.70
2018-05-31T00:12:52.815Z,6.70
2018-05-31T00:13:52.809Z,5.70
2018-05-31T00:14:52.803Z,5.30
2018-05-31T00:15:52.800Z,6.20
2018-05-31T00:16:52.794Z,5.10
2018-05-31T00:17:52.791Z,5.70
2018-05-31T00:18:52.789Z,4.20
2018-05-31T00:19:52.782Z,5.70
2018-05-31T00:20:52.780Z,4.90
2018-05-31T00:21:52.776Z,4.30
2018-05-31T00:22:52.774Z,4.80
2018-05-31T00:23:52.766Z,4.70
2018-05-31T00:24:52.767Z,4.40
2018-05-31T00:25:52.760Z,6.20
2018-05-31T00:26:52.757Z,7.00
2018-05-31T00:27:52.756Z,6.10
2018-05-31T00:28:52.749Z,4.50
2018-05-31T00:29:52.742Z,4.30
2018-05-31T00:30:52.749Z,5.40
2018-05-31T00:31:52.742Z,5.60
2018-05-31T00:32:52.732Z,5.70
2018-05-31T00:33:52.730Z,5.40
2018-05-31T00:34:52.726Z,4.60
2018-05-31T00:35:52.725Z,6.50
2018-05-31T00:36:52.719Z,5.40
2018-05-31T00:37:52.712Z,3.80
2018-05-31T00:38:52.705Z,5.50
2018-05-31T00:39:52.711Z,4.70
2018-05-31T00:40:52.704Z,4.80
2018-05-31T00:41:52.700Z,6.90
2018-05-31T00:42:52.694Z,4.50
2018-05-31T00:43:52.709Z,4.90
2018-05-31T00:44:52.691Z,6.10
2018-05-31T00:45:52.722Z,3.50
2018-05-31T00:46:52.677Z,4.30
2018-05-31T00:47:52.675Z,5.60
2018-05-31T00:48:52.674Z,8.70
2018-05-31T00:49:52.668Z,7.40
2018-05-31T00:50:52.664Z,6.60
2018-05-31T00:51:52.660Z,5.50
2018-05-31T00:52:52.657Z,5.10
2018-05-31T00:53:52.649Z,4.00
2018-05-31T00:54:52.652Z,5.50
2018-05-31T00:55:52.643Z,4.00
2018-05-31T00:56:52.644Z,4.90
2018-05-31T00:57:52.633Z,6.50
2018-05-31T00:58:52.648Z,5.00
2018-05-31T00:59:52.629Z,5.10
2018-05-31T01:00:52.625Z,5.10
2018-05-31T01:01:52.620Z,4.40
2018-05-31T01:02:52.615Z,4.40
2018-05-31T01:03:52.616Z,4.60
2018-05-31T01:04:52.621Z,7.00
2018-05-31T01:05:52.607Z,6.00
2018-05-31T01:06:52.603Z,4.20
2018-05-31T01:07:52.597Z,5.40
2018-05-31T01:08:52.591Z,5.60
2018-05-31T01:09:52.581Z,7.00
2018-05-31T01:10:52.584Z,4.90
2018-05-31T01:11:52.619Z,7.30
2018-05-31T01:12:52.576Z,5.50
2018-05-31T01:13:52.572Z,6.20
2018-05-31T01:14:52.567Z,4.60
2018-05-31T01:15:52.566Z,4.70
2018-05-31T01:16:52.585Z,5.10
2018-05-31T01:17:52.602Z,6.90
2018-05-31T01:18:52.549Z,5.20
2018-05-31T01:19:52.550Z,5.20
2018-05-31T01:20:52.544Z,7.70
2018-05-31T01:21:52.544Z,7.90
2018-05-31T01:22:52.538Z,6.10
2018-05-31T01:23:52.541Z,4.80
2018-05-31T01:24:52.535Z,4.90
2018-05-31T01:25:52.527Z,5.90
2018-05-31T01:26:52.590Z,6.50
2018-05-31T01:27:52.519Z,6.00
2018-05-31T01:28:52.514Z,5.80
2018-05-31T01:29:52.512Z,7.30
2018-05-31T01:30:52.504Z,6.20
2018-05-31T02:02:51.044Z,6.60
2018-05-31T02:03:51.011Z,11.30
2018-05-31T02:04:50.997Z,15.40
2018-05-31T02:05:50.994Z,13.50
2018-05-31T02:06:50.985Z,15.50
2018-05-31T02:07:50.968Z,17.20
2018-05-31T02:08:50.965Z,18.90
2018-05-31T02:09:50.954Z,11.50
2018-05-31T02:10:50.948Z,15.30
2018-05-31T02:11:50.938Z,11.40
2018-05-31T02:12:50.930Z,14.60
2018-05-31T02:13:50.929Z,11.60
2018-05-31T02:14:50.918Z,10.50
2018-05-31T02:15:50.912Z,10.70
2018-05-31T02:16:50.910Z,10.30
2018-05-31T02:17:50.910Z,10.90
2018-05-31T02:18:50.899Z,10.40
2018-05-31T02:19:50.893Z,8.80
2018-05-31T02:20:50.891Z,10.40
2018-05-31T02:21:50.887Z,9.00
2018-05-31T02:22:50.879Z,11.20
2018-05-31T02:23:50.872Z,11.30
2018-05-31T02:24:50.871Z,10.70
2018-05-31T02:25:50.863Z,10.40
2018-05-31T02:26:50.864Z,13.20
2018-05-31T02:27:50.856Z,13.10
2018-05-31T02:28:50.854Z,14.10
2018-05-31T02:29:50.846Z,13.70
2018-05-31T02:30:50.839Z,7.90
2018-05-31T02:31:50.836Z,11.40
2018-05-31T02:32:50.833Z,10.70
2018-05-31T02:33:50.831Z,11.40
2018-05-31T02:34:50.825Z,10.60
2018-05-31T02:35:50.814Z,12.40
2018-05-31T02:36:50.815Z,12.90
2018-05-31T02:37:50.810Z,10.10
2018-05-31T02:38:50.809Z,10.60
2018-05-31T02:39:50.795Z,11.50
2018-05-31T02:40:50.799Z,10.90
2018-05-31T02:41:50.792Z,10.80
2018-05-31T02:42:50.793Z,8.90
2018-05-31T02:43:50.782Z,9.10
2018-05-31T02:44:50.785Z,8.10
2018-05-31T02:45:50.778Z,10.80
2018-05-31T02:46:50.777Z,13.80
2018-05-31T02:47:50.772Z,18.50
2018-05-31T02:48:50.765Z,15.00
2018-05-31T02:49:50.762Z,16.30
2018-05-31T02:50:50.759Z,11.50
2018-05-31T02:51:50.753Z,10.40
2018-05-31T02:52:50.745Z,10.00
2018-05-31T02:53:50.744Z,10.50
2018-05-31T02:54:50.740Z,12.60
2018-05-31T02:55:50.736Z,11.70
2018-05-31T02:56:50.729Z,18.50
2018-05-31T02:57:50.722Z,18.40
2018-05-31T02:58:50.725Z,23.30
2018-05-31T02:59:50.731Z,27.00
2018-05-31T03:00:50.717Z,50.20
2018-05-31T03:01:50.716Z,50.30
2018-05-31T03:02:50.708Z,65.30
2018-05-31T03:03:50.708Z,90.70
2018-05-31T03:04:50.701Z,128.50
2018-05-31T03:05:50.706Z,157.60
2018-05-31T03:06:50.688Z,121.00
2018-05-31T03:07:50.717Z,126.40
2018-05-31T03:08:50.686Z,158.40
2018-05-31T03:09:50.670Z,130.20
2018-05-31T03:10:50.676Z,104.50
2018-05-31T03:11:50.666Z,110.70
2018-05-31T03:12:50.672Z,143.00
2018-05-31T03:13:50.662Z,118.70
2018-05-31T03:14:50.659Z,114.40
2018-05-31T03:15:50.656Z,85.60
2018-05-31T03:16:50.656Z,61.70
2018-05-31T03:17:50.653Z,78.50
2018-05-31T03:18:50.647Z,84.80
2018-05-31T03:19:50.642Z,100.20
2018-05-31T03:20:50.729Z,28.90
2018-05-31T03:21:50.634Z,24.80
2018-05-31T03:22:50.632Z,21.00
2018-05-31T03:23:50.621Z,17.00
2018-05-31T03:24:50.621Z,17.10
2018-05-31T03:25:50.617Z,17.80
2018-05-31T03:26:50.614Z,18.00
2018-05-31T03:27:50.609Z,15.70
2018-05-31T03:28:50.610Z,15.30
2018-05-31T03:29:50.604Z,14.50
2018-05-31T03:30:50.596Z,16.40
2018-05-31T03:31:50.601Z,12.80
2018-05-31T03:32:50.590Z,15.40
2018-05-31T03:33:50.585Z,11.50
2018-05-31T03:34:50.583Z,13.70
2018-05-31T03:35:50.577Z,13.00
2018-05-31T03:36:50.577Z,15.90
2018-05-31T03:37:50.574Z,12.00
2018-05-31T03:38:50.569Z,11.20
2018-05-31T03:39:50.562Z,9.90
2018-05-31T03:40:50.566Z,11.30
2018-05-31T03:41:50.552Z,13.00
2018-05-31T03:42:50.550Z,12.40
2018-05-31T03:43:50.542Z,14.90
2018-05-31T03:44:50.539Z,13.10
2018-05-31T03:45:50.538Z,13.00
2018-05-31T03:46:50.533Z,15.50
2018-05-31T03:47:50.524Z,11.50
2018-05-31T03:48:50.546Z,14.90
2018-05-31T03:49:50.522Z,12.60
2018-05-31T03:50:50.522Z,11.70
2018-05-31T03:51:50.523Z,15.60
2018-05-31T03:52:50.514Z,14.50
2018-05-31T03:53:50.512Z,11.90
2018-05-31T03:54:50.505Z,14.10
2018-05-31T03:55:50.505Z,11.10
2018-05-31T03:56:50.493Z,11.80
2018-05-31T03:57:50.493Z,13.30
2018-05-31T03:58:50.490Z,12.50
2018-05-31T03:59:50.484Z,12.40
2018-05-31T04:00:50.485Z,12.20
2018-05-31T04:01:50.479Z,13.20
2018-05-31T04:02:50.475Z,10.20
2018-05-31T04:03:50.480Z,10.50
2018-05-31T04:04:50.461Z,9.70
2018-05-31T04:05:50.459Z,12.10
2018-05-31T04:06:50.462Z,11.50
2018-05-31T04:07:50.443Z,13.20
2018-05-31T04:08:50.455Z,9.80
2018-05-31T04:09:50.445Z,8.10
2018-05-31T04:10:50.444Z,8.70
2018-05-31T04:11:50.442Z,8.20
2018-05-31T04:12:50.434Z,8.20
2018-05-31T04:13:50.431Z,8.00
2018-05-31T04:14:50.425Z,10.00
2018-05-31T04:15:50.433Z,7.90
2018-05-31T04:16:50.418Z,8.10
2018-05-31T04:17:50.412Z,10.50
2018-05-31T04:18:50.408Z,8.00
2018-05-31T04:19:50.407Z,9.10
2018-05-31T04:20:50.399Z,8.60
2018-05-31T04:21:50.403Z,9.00
2018-05-31T04:22:50.392Z,8.50
2018-05-31T04:23:50.393Z,9.70
2018-05-31T04:24:50.384Z,9.10
2018-05-31T04:25:50.386Z,10.80
2018-05-31T04:26:50.378Z,12.00
2018-05-31T04:27:50.375Z,8.30
2018-05-31T04:28:50.371Z,10.90
2018-05-31T04:29:50.366Z,9.10
2018-05-31T04:30:50.367Z,11.20
2018-05-31T04:31:50.359Z,9.70
2018-05-31T04:32:50.359Z,8.50
2018-05-31T04:33:50.352Z,12.20
2018-05-31T04:34:50.352Z,9.60
2018-05-31T04:35:50.350Z,8.00
2018-05-31T04:36:50.348Z,7.10
2018-05-31T04:37:50.341Z,8.30
2018-05-31T04:38:50.344Z,6.50
2018-05-31T04:39:50.327Z,8.80
2018-05-31T04:40:50.330Z,6.30
2018-05-31T04:41:50.327Z,8.30
2018-05-31T04:42:50.327Z,5.60
2018-05-31T04:43:50.321Z,5.80
2018-05-31T04:44:50.320Z,6.80
2018-05-31T04:45:50.316Z,7.60
2018-05-31T04:46:50.306Z,7.80
2018-05-31T04:47:50.310Z,7.20
2018-05-31T04:48:50.318Z,5.70
2018-05-31T04:49:50.305Z,7.10
2018-05-31T04:50:50.302Z,7.40
2018-05-31T04:51:50.299Z,6.00
2018-05-31T04:52:50.293Z,6.10
2018-05-31T04:53:50.290Z,5.40
2018-05-31T04:54:50.290Z,9.80
2018-05-31T04:55:50.288Z,5.80
2018-05-31T04:56:50.286Z,5.60
2018-05-31T04:57:50.280Z,8.50
2018-05-31T04:58:50.277Z,5.70
2018-05-31T04:59:50.281Z,5.80
2018-05-31T05:00:50.271Z,6.00
2018-05-31T05:01:50.275Z,7.20
2018-05-31T05:02:50.263Z,9.50
2018-05-31T05:03:50.268Z,5.70
2018-05-31T05:04:50.264Z,6.50
2018-05-31T05:05:50.254Z,7.70
2018-05-31T05:06:50.252Z,6.30
2018-05-31T05:07:50.253Z,7.10
2018-05-31T05:08:50.244Z,6.20
2018-05-31T05:09:50.245Z,6.80
2018-05-31T05:10:50.242Z,6.10
2018-05-31T05:11:50.238Z,9.70
2018-05-31T05:12:50.236Z,7.70
2018-05-31T05:13:50.231Z,8.20
2018-05-31T05:14:50.233Z,7.10
2018-05-31T05:15:50.230Z,6.30
2018-05-31T05:16:50.228Z,6.80
2018-05-31T05:17:50.226Z,7.90
2018-05-31T05:18:50.223Z,6.80
2018-05-31T05:19:50.222Z,9.30
2018-05-31T05:20:50.215Z,6.40
2018-05-31T05:21:50.216Z,5.50
2018-05-31T05:22:50.216Z,7.50
2018-05-31T05:23:50.206Z,6.50
2018-05-31T05:24:50.206Z,6.10
2018-05-31T05:25:50.203Z,5.80
2018-05-31T05:26:50.206Z,5.90
2018-05-31T05:27:50.199Z,8.40
2018-05-31T05:28:50.203Z,7.40
2018-05-31T05:29:50.198Z,6.80
2018-05-31T05:30:50.194Z,6.90
2018-05-31T05:31:50.190Z,6.30
2018-05-31T05:32:50.192Z,7.10
2018-05-31T05:33:50.199Z,7.40
2018-05-31T05:34:50.186Z,6.80
2018-05-31T05:35:50.222Z,8.00
2018-05-31T05:36:50.179Z,8.10
2018-05-31T05:37:50.179Z,6.90
2018-05-31T05:38:50.176Z,7.90
2018-05-31T05:39:50.173Z,8.00
2018-05-31T05:40:50.173Z,7.70
2018-05-31T05:41:50.164Z,7.40
2018-05-31T05:42:50.166Z,6.90
2018-05-31T05:43:50.167Z,6.90
2018-05-31T05:44:50.168Z,11.70
2018-05-31T05:45:50.162Z,9.50
2018-05-31T05:46:50.162Z,8.70
2018-05-31T05:47:50.156Z,8.40
2018-05-31T05:48:50.153Z,8.40
2018-05-31T05:49:50.164Z,10.10
2018-05-31T05:50:50.157Z,8.00
2018-05-31T05:51:50.157Z,9.20
2018-05-31T05:52:50.159Z,8.90
2018-05-31T05:53:50.149Z,7.90
2018-05-31T05:54:50.148Z,9.10
2018-05-31T05:55:50.149Z,9.30
2018-05-31T05:56:50.148Z,8.90
2018-05-31T05:57:50.145Z,8.50
2018-05-31T05:58:50.144Z,9.20
2018-05-31T05:59:50.147Z,8.70
2018-05-31T06:00:50.144Z,9.10
2018-05-31T06:01:50.187Z,7.80
2018-05-31T06:02:50.144Z,9.10
2018-05-31T06:03:50.145Z,9.30
2018-05-31T06:04:50.138Z,8.50
2018-05-31T06:05:50.147Z,8.60
2018-05-31T06:06:50.143Z,8.60
2018-05-31T06:07:50.141Z,8.60
2018-05-31T06:08:50.147Z,9.00
2018-05-31T06:09:50.148Z,8.90
2018-05-31T06:10:50.139Z,11.10
2018-05-31T06:11:50.144Z,9.40
2018-05-31T06:12:50.148Z,9.10
2018-05-31T06:13:50.185Z,9.00
2018-05-31T06:14:50.145Z,9.60
2018-05-31T06:15:50.143Z,8.80
2018-05-31T06:16:50.145Z,8.90
2018-05-31T06:17:50.144Z,11.70
2018-05-31T06:18:50.171Z,9.20
2018-05-31T06:19:50.165Z,10.00
2018-05-31T06:20:50.144Z,11.60
2018-05-31T06:21:50.145Z,9.80
2018-05-31T06:22:50.148Z,10.40
2018-05-31T06:23:50.149Z,9.90
2018-05-31T06:24:50.152Z,9.80
2018-05-31T06:25:50.150Z,10.00
2018-05-31T06:26:50.151Z,10.80
2018-05-31T06:27:50.153Z,10.80
2018-05-31T06:28:50.156Z,11.20
2018-05-31T06:29:50.159Z,11.60
2018-05-31T06:30:50.162Z,9.90
2018-05-31T06:31:50.156Z,9.70
2018-05-31T06:32:50.166Z,10.10
2018-05-31T06:33:50.172Z,10.20
2018-05-31T06:34:50.170Z,10.00
2018-05-31T06:35:50.165Z,10.40
2018-05-31T06:36:50.171Z,10.60
2018-05-31T06:37:50.175Z,10.70
2018-05-31T06:38:50.180Z,11.40
2018-05-31T06:39:50.183Z,10.80
2018-05-31T06:40:50.185Z,11.20
2018-05-31T06:41:50.189Z,10.60
2018-05-31T06:42:50.195Z,10.70
2018-05-31T06:43:50.188Z,10.20
2018-05-31T06:44:50.200Z,9.60
2018-05-31T06:45:50.244Z,10.00
2018-05-31T06:46:50.203Z,9.80
2018-05-31T06:47:50.199Z,9.80
2018-05-31T06:48:50.204Z,9.70
2018-05-31T06:49:50.207Z,10.60
2018-05-31T06:50:50.213Z,9.70
2018-05-31T06:51:50.214Z,10.00
2018-05-31T06:52:50.217Z,10.60
2018-05-31T06:53:50.222Z,10.50
2018-05-31T06:54:50.229Z,10.30
2018-05-31T06:55:50.231Z,10.00
2018-05-31T06:56:50.234Z,9.70
2018-05-31T06:57:50.240Z,10.70
2018-05-31T06:58:50.248Z,10.40
2018-05-31T06:59:50.250Z,9.40
2018-05-31T07:00:50.297Z,10.50
2018-05-31T07:01:50.261Z,9.80
2018-05-31T07:02:50.261Z,9.50
2018-05-31T07:03:50.267Z,9.70
2018-05-31T07:04:50.275Z,9.20
2018-05-31T07:05:50.275Z,9.90
2018-05-31T07:06:50.304Z,9.30
2018-05-31T07:07:50.290Z,9.40
2018-05-31T07:08:50.295Z,9.50
2018-05-31T07:09:50.296Z,9.10
2018-05-31T07:10:50.299Z,8.70
2018-05-31T07:11:50.306Z,9.00
2018-05-31T07:12:50.313Z,8.50
2018-05-31T07:13:50.315Z,9.10
2018-05-31T07:14:50.322Z,9.90
2018-05-31T07:15:50.348Z,9.50
2018-05-31T07:16:50.332Z,9.50
2018-05-31T07:17:50.343Z,9.50
2018-05-31T07:18:50.342Z,9.70
2018-05-31T07:19:50.349Z,9.40
2018-05-31T07:20:50.354Z,8.80
2018-05-31T07:21:50.415Z,8.90
2018-05-31T07:22:50.368Z,8.60
2018-05-31T07:23:50.374Z,8.60
2018-05-31T07:24:50.382Z,8.20
2018-05-31T07:25:50.389Z,7.70
2018-05-31T07:26:50.397Z,8.20
2018-05-31T07:27:50.400Z,8.30
2018-05-31T07:28:50.411Z,8.60
2018-05-31T07:29:50.416Z,8.90
2018-05-31T07:30:50.429Z,8.40
2018-05-31T07:31:50.431Z,8.10
2018-05-31T07:32:50.448Z,7.60
2018-05-31T07:33:50.460Z,8.20
2018-05-31T07:34:50.459Z,7.80
2018-05-31T07:35:50.471Z,7.60
2018-05-31T07:36:50.478Z,7.50
2018-05-31T07:37:50.514Z,7.60
2018-05-31T07:38:50.519Z,7.80
2018-05-31T07:39:50.515Z,7.70
2018-05-31T07:40:50.522Z,8.20
2018-05-31T07:41:50.542Z,7.90
2018-05-31T07:42:50.561Z,7.60
2018-05-31T07:43:50.561Z,7.90
2018-05-31T07:44:50.565Z,8.40
2018-05-31T07:45:50.574Z,7.50
2018-05-31T07:46:50.585Z,7.70
2018-05-31T07:47:50.600Z,7.30
2018-05-31T07:48:50.609Z,8.10
2018-05-31T07:49:50.626Z,7.30
2018-05-31T07:50:50.626Z,7.30
2018-05-31T07:51:50.644Z,7.50
2018-05-31T07:52:50.657Z,6.90
2018-05-31T07:53:50.674Z,7.00
2018-05-31T07:54:50.679Z,6.80
2018-05-31T07:55:50.712Z,7.10
2018-05-31T07:56:50.707Z,7.00
2018-05-31T07:57:51.623Z,7.00
2018-05-31T07:58:50.741Z,7.00
2018-05-31T07:59:50.833Z,6.40
2018-05-31T08:00:50.873Z,6.40
2018-05-31T08:01:51.612Z,6.30
2018-05-31T08:02:50.792Z,6.80
2018-05-31T08:03:50.925Z,6.80
2018-05-31T08:04:50.824Z,7.10
2018-05-31T08:05:50.839Z,6.50
2018-05-31T08:06:50.846Z,6.30
2018-05-31T08:07:50.866Z,5.80
2018-05-31T08:08:50.876Z,5.90
2018-05-31T08:09:50.904Z,5.70
2018-05-31T08:10:50.914Z,6.10
2018-05-31T08:11:50.923Z,6.70
2018-05-31T08:12:50.932Z,6.20
2018-05-31T08:13:50.950Z,5.40
2018-05-31T08:14:50.966Z,5.70
2018-05-31T08:15:50.980Z,5.80
2018-05-31T08:16:50.992Z,5.70
2018-05-31T08:17:51.008Z,5.80
2018-05-31T08:18:51.023Z,5.90
2018-05-31T08:19:51.037Z,5.20
2018-05-31T08:20:51.052Z,5.60
2018-05-31T08:21:51.070Z,5.40
2018-05-31T08:22:51.081Z,6.30
2018-05-31T08:23:51.096Z,5.50
2018-05-31T08:24:51.152Z,5.50
2018-05-31T08:25:51.212Z,5.00
2018-05-31T08:26:51.280Z,5.00
2018-05-31T08:27:51.574Z,4.80
2018-05-31T08:28:51.581Z,4.90
2018-05-31T08:29:51.390Z,5.90
2018-05-31T08:30:51.568Z,5.30
2018-05-31T08:31:51.497Z,5.70
2018-05-31T08:32:51.561Z,5.40
2018-05-31T08:33:51.539Z,5.60
2018-05-31T08:34:51.527Z,6.10
2018-05-31T08:35:51.674Z,5.70
2018-05-31T08:36:51.623Z,5.70
2018-05-31T08:37:51.496Z,5.90
2018-05-31T08:38:51.558Z,5.30
2018-05-31T08:39:51.735Z,5.90
2018-05-31T08:40:51.650Z,5.50
2018-05-31T08:41:51.493Z,5.50
2018-05-31T08:42:51.495Z,5.30
2018-05-31T08:43:51.463Z,6.30
2018-05-31T08:44:51.458Z,6.20
2018-05-31T08:45:51.505Z,5.70
2018-05-31T08:46:51.662Z,6.80
2018-05-31T08:47:51.812Z,6.30
2018-05-31T08:48:51.791Z,6.10
2018-05-31T08:49:51.709Z,6.20
2018-05-31T08:50:51.697Z,6.10
2018-05-31T08:51:51.934Z,6.10
2018-05-31T08:52:51.562Z,6.00
2018-05-31T08:53:51.599Z,5.30
2018-05-31T08:54:51.596Z,5.80
2018-05-31T08:55:51.613Z,6.30
2018-05-31T08:56:51.627Z,5.60
2018-05-31T08:57:51.656Z,5.70
2018-05-31T08:58:51.667Z,5.50
2018-05-31T08:59:51.686Z,5.10
2018-05-31T09:00:51.705Z,5.00
2018-05-31T09:01:51.725Z,5.80
2018-05-31T09:02:51.734Z,5.20
2018-05-31T09:03:51.752Z,6.00
2018-05-31T09:04:51.772Z,6.30
2018-05-31T09:05:51.792Z,6.50
2018-05-31T09:06:51.813Z,6.50
2018-05-31T09:07:51.833Z,5.70
2018-05-31T09:08:51.846Z,5.80
2018-05-31T09:09:51.867Z,6.50
2018-05-31T09:10:51.886Z,5.90
2018-05-31T09:11:51.907Z,6.00
2018-05-31T09:12:51.923Z,6.30
2018-05-31T09:13:51.937Z,6.30
2018-05-31T09:14:51.957Z,6.30
2018-05-31T09:15:51.979Z,6.10
2018-05-31T09:16:52.000Z,6.50
2018-05-31T09:17:52.017Z,19.50
2018-05-31T09:18:52.032Z,5.90
2018-05-31T09:19:52.052Z,6.30
2018-05-31T09:20:52.094Z,5.70
2018-05-31T09:21:52.088Z,5.70
2018-05-31T09:22:52.107Z,5.50
2018-05-31T09:23:52.137Z,5.60
2018-05-31T09:24:52.146Z,5.10
2018-05-31T09:25:52.163Z,5.90
2018-05-31T09:26:52.184Z,6.60
2018-05-31T09:27:52.199Z,6.40
2018-05-31T09:28:52.221Z,5.90
2018-05-31T09:29:52.243Z,6.30
2018-05-31T09:30:52.256Z,6.20
2018-05-31T09:31:52.279Z,6.60
2018-05-31T09:32:52.293Z,6.20
2018-05-31T09:33:52.311Z,6.30
2018-05-31T09:34:52.333Z,6.20
2018-05-31T09:35:52.345Z,6.00
2018-05-31T09:36:52.364Z,6.30
2018-05-31T09:37:52.381Z,6.40
2018-05-31T09:38:52.412Z,5.50
2018-05-31T09:39:52.417Z,5.60
2018-05-31T09:40:52.432Z,6.40
2018-05-31T09:41:52.454Z,6.30
2018-05-31T09:42:52.471Z,5.70
2018-05-31T09:43:52.485Z,5.60
2018-05-31T09:44:52.507Z,5.60
2018-05-31T09:45:52.524Z,6.00
2018-05-31T09:46:52.555Z,7.20
2018-05-31T09:47:52.568Z,5.90
2018-05-31T09:48:52.565Z,5.50
2018-05-31T09:49:52.592Z,5.20
2018-05-31T09:50:52.609Z,5.50
2018-05-31T09:51:52.630Z,5.90
2018-05-31T09:52:52.646Z,5.60
2018-05-31T09:53:52.667Z,5.60
2018-05-31T09:54:52.683Z,5.20
2018-05-31T09:55:52.698Z,5.20
2018-05-31T09:56:52.712Z,5.30
2018-05-31T09:57:52.737Z,5.60
2018-05-31T09:58:52.751Z,5.50
2018-05-31T09:59:52.772Z,5.40
2018-05-31T10:00:52.786Z,5.10
2018-05-31T10:01:52.807Z,5.60
2018-05-31T10:02:52.832Z,5.20
2018-05-31T10:03:52.848Z,5.30
2018-05-31T10:04:52.863Z,5.50
2018-05-31T10:05:52.893Z,5.80
2018-05-31T10:06:52.898Z,5.70
2018-05-31T10:07:52.915Z,5.30
2018-05-31T10:08:52.937Z,5.10
2018-05-31T10:09:52.957Z,5.10
2018-05-31T10:10:52.977Z,5.40
2018-05-31T10:11:52.998Z,5.50
2018-05-31T10:12:53.006Z,5.40
2018-05-31T10:13:53.030Z,6.20
2018-05-31T10:14:53.048Z,7.70
2018-05-31T10:15:53.067Z,5.20
2018-05-31T10:16:53.089Z,5.40
2018-05-31T10:17:53.106Z,5.20
2018-05-31T10:18:53.116Z,6.00
2018-05-31T10:19:53.147Z,5.60
2018-05-31T10:20:53.160Z,6.20
2018-05-31T10:21:53.184Z,5.70
2018-05-31T10:22:53.201Z,5.30
2018-05-31T10:23:53.220Z,5.30
2018-05-31T10:24:53.234Z,5.90
2018-05-31T10:25:53.262Z,5.90
2018-05-31T10:26:53.276Z,5.90
2018-05-31T10:27:53.289Z,5.20
2018-05-31T10:28:53.311Z,5.60
2018-05-31T10:29:53.327Z,5.50
2018-05-31T10:30:53.349Z,5.30
2018-05-31T10:31:53.365Z,5.50
2018-05-31T10:32:53.402Z,5.30
2018-05-31T10:33:53.404Z,5.70
2018-05-31T10:34:53.421Z,4.80
2018-05-31T10:35:53.438Z,4.80
2018-05-31T10:36:53.461Z,4.50
2018-05-31T10:37:53.471Z,4.40
2018-05-31T10:38:53.492Z,5.70
2018-05-31T10:39:53.513Z,4.50
2018-05-31T10:40:53.530Z,5.00
2018-05-31T10:41:53.552Z,5.40
2018-05-31T10:42:53.566Z,4.90
2018-05-31T10:43:53.586Z,5.10
2018-05-31T10:44:53.608Z,5.20
2018-05-31T10:45:53.626Z,5.10
2018-05-31T10:46:53.638Z,5.30
2018-05-31T10:47:53.659Z,4.70
2018-05-31T10:48:53.674Z,4.70
2018-05-31T10:49:53.718Z,5.10
2018-05-31T10:50:53.715Z,4.90
2018-05-31T10:51:53.738Z,4.90
2018-05-31T10:52:53.749Z,4.80
2018-05-31T10:53:53.780Z,5.20
2018-05-31T10:54:53.781Z,5.30
2018-05-31T10:55:53.806Z,5.40
2018-05-31T10:56:53.835Z,5.70
2018-05-31T10:57:53.843Z,5.00
2018-05-31T10:58:53.864Z,5.40
2018-05-31T10:59:53.906Z,5.60
2018-05-31T11:00:53.897Z,5.70
2018-05-31T11:01:53.919Z,5.50
2018-05-31T11:02:53.943Z,6.20
2018-05-31T11:03:53.959Z,5.90
2018-05-31T11:04:53.975Z,6.30
2018-05-31T11:05:53.996Z,5.80
2018-05-31T11:06:54.012Z,6.20
2018-05-31T11:07:54.036Z,6.00
2018-05-31T11:08:54.063Z,5.60
2018-05-31T11:09:54.067Z,5.40
2018-05-31T11:10:54.087Z,5.90
2018-05-31T11:11:54.109Z,5.50
2018-05-31T11:12:54.126Z,6.40
2018-05-31T11:13:54.146Z,5.40
2018-05-31T11:14:54.213Z,5.10
2018-05-31T11:15:54.178Z,5.10
2018-05-31T11:16:54.201Z,5.30
2018-05-31T11:17:54.228Z,6.50
2018-05-31T11:18:54.236Z,5.10
2018-05-31T11:19:54.255Z,5.50
2018-05-31T11:20:54.275Z,5.80
2018-05-31T11:21:54.283Z,5.60
2018-05-31T11:22:54.310Z,5.70
2018-05-31T11:23:54.328Z,5.30
2018-05-31T11:24:54.349Z,7.00
2018-05-31T11:25:54.388Z,5.70
2018-05-31T11:26:54.428Z,6.00
2018-05-31T11:27:54.395Z,5.90
2018-05-31T11:28:54.411Z,5.70
2018-05-31T11:29:54.441Z,5.70
2018-05-31T11:30:54.460Z,5.80
2018-05-31T11:31:54.487Z,5.90
2018-05-31T11:32:54.502Z,5.80
2018-05-31T11:33:54.511Z,5.50
2018-05-31T11:34:54.540Z,6.20
2018-05-31T11:35:54.558Z,5.80
2018-05-31T11:36:54.566Z,5.40
2018-05-31T11:37:54.586Z,5.60
2018-05-31T11:38:54.603Z,5.30
2018-05-31T11:39:54.625Z,5.70
2018-05-31T11:40:54.645Z,5.60
2018-05-31T11:41:54.667Z,5.80
2018-05-31T11:42:54.684Z,5.20
2018-05-31T11:43:54.699Z,5.30
2018-05-31T11:44:54.717Z,5.30
2018-05-31T11:45:54.738Z,5.50
2018-05-31T11:46:54.756Z,5.40
2018-05-31T11:47:54.774Z,5.20
2018-05-31T11:48:54.793Z,5.50
2018-05-31T11:49:54.811Z,5.40
2018-05-31T11:50:54.835Z,6.00
2018-05-31T11:51:54.847Z,5.40
2018-05-31T11:52:54.870Z,6.00
2018-05-31T11:53:54.893Z,5.30
2018-05-31T11:54:54.900Z,5.70
2018-05-31T11:55:54.927Z,5.30
2018-05-31T11:56:54.950Z,5.40
2018-05-31T11:57:54.964Z,5.60
2018-05-31T11:58:54.991Z,5.50
2018-05-31T11:59:55.001Z,5.10
2018-05-31T12:00:55.022Z,5.40
2018-05-31T12:01:55.042Z,5.10
2018-05-31T12:02:55.078Z,5.10
2018-05-31T12:03:55.076Z,4.80
2018-05-31T12:04:55.098Z,5.20
2018-05-31T12:05:55.119Z,6.00
2018-05-31T12:06:55.134Z,5.20
2018-05-31T12:07:55.155Z,4.80
2018-05-31T12:08:55.171Z,4.90
2018-05-31T12:09:55.194Z,5.30
2018-05-31T12:10:55.256Z,5.40
2018-05-31T12:11:55.217Z,4.50
2018-05-31T12:12:55.249Z,4.20
2018-05-31T12:13:55.259Z,5.30
2018-05-31T12:14:55.280Z,4.80
2018-05-31T12:15:55.296Z,4.60
2018-05-31T12:16:55.320Z,4.60
2018-05-31T12:17:55.335Z,4.40
2018-05-31T12:18:55.355Z,4.60
2018-05-31T12:19:55.368Z,4.70
2018-05-31T12:20:55.397Z,4.30
2018-05-31T12:21:55.411Z,4.40
2018-05-31T12:22:55.421Z,4.10
2018-05-31T12:23:55.449Z,4.30
2018-05-31T12:24:55.460Z,4.30
2018-05-31T12:25:55.486Z,4.80
2018-05-31T12:26:55.503Z,4.50
2018-05-31T12:27:55.512Z,4.40
2018-05-31T12:28:55.532Z,4.30
2018-05-31T12:29:56.049Z,4.50
2018-05-31T12:30:55.571Z,4.40
2018-05-31T12:31:55.587Z,4.60
2018-05-31T12:32:55.609Z,4.90
2018-05-31T12:33:55.620Z,4.30
2018-05-31T12:34:55.639Z,4.30
2018-05-31T12:35:55.661Z,4.20
2018-05-31T12:36:55.672Z,4.10
2018-05-31T12:37:55.707Z,3.90
2018-05-31T12:38:55.697Z,6.30
2018-05-31T12:39:55.735Z,4.90
2018-05-31T12:40:55.731Z,6.70
2018-05-31T12:41:55.744Z,7.50
2018-05-31T12:42:55.762Z,4.20
2018-05-31T12:43:55.771Z,5.30
2018-05-31T12:44:55.786Z,4.50
2018-05-31T12:45:55.800Z,5.30
2018-05-31T12:46:55.809Z,5.20
2018-05-31T12:47:55.820Z,4.90
2018-05-31T12:48:55.832Z,5.50
2018-05-31T12:49:55.844Z,7.40
2018-05-31T12:50:55.857Z,4.80
2018-05-31T12:51:55.871Z,5.80
2018-05-31T12:52:55.872Z,6.10
2018-05-31T12:53:55.886Z,5.80
2018-05-31T12:54:55.892Z,4.80
2018-05-31T12:55:55.909Z,4.70
2018-05-31T12:56:55.912Z,6.00
2018-05-31T12:57:55.922Z,5.60
2018-05-31T12:58:55.932Z,4.70
2018-05-31T12:59:55.940Z,5.00
2018-05-31T13:00:55.956Z,5.70
2018-05-31T13:01:55.955Z,5.90
2018-05-31T13:02:55.962Z,4.70
2018-05-31T13:03:55.973Z,6.30
2018-05-31T13:04:55.984Z,6.20
2018-05-31T13:05:56.061Z,4.80
2018-05-31T13:06:55.995Z,6.20
2018-05-31T13:07:56.006Z,4.90
2018-05-31T13:08:56.006Z,4.90
2018-05-31T13:09:56.020Z,6.10
2018-05-31T13:10:56.025Z,5.20
2018-05-31T13:11:56.038Z,5.00
2018-05-31T13:12:56.048Z,4.70
2018-05-31T13:13:56.051Z,5.00
2018-05-31T13:14:56.055Z,6.10
2018-05-31T13:15:56.063Z,6.00
2018-05-31T13:16:56.069Z,4.90
2018-05-31T13:17:56.090Z,5.70
2018-05-31T13:18:56.083Z,5.20
2018-05-31T13:19:56.090Z,4.90
2018-05-31T13:20:56.089Z,5.60
2018-05-31T13:21:56.099Z,5.60
2018-05-31T13:22:56.112Z,7.10
2018-05-31T13:23:56.111Z,5.30
2018-05-31T13:24:56.118Z,4.80
2018-05-31T13:25:56.129Z,5.30
2018-05-31T13:26:56.138Z,5.30
2018-05-31T13:27:56.141Z,6.20
2018-05-31T13:28:56.151Z,6.70
2018-05-31T13:29:56.157Z,6.70
2018-05-31T13:30:56.152Z,5.40
2018-05-31T13:31:56.164Z,5.30
2018-05-31T13:32:56.171Z,5.30
2018-05-31T13:33:56.175Z,5.50
2018-05-31T13:34:56.184Z,5.90
2018-05-31T13:35:56.243Z,6.00
2018-05-31T13:36:56.250Z,6.10
2018-05-31T13:37:56.212Z,5.60
2018-05-31T13:38:56.253Z,6.00
2018-05-31T13:39:56.223Z,7.60
2018-05-31T13:40:56.220Z,6.10
2018-05-31T13:41:56.222Z,6.30
2018-05-31T13:42:56.230Z,6.40
2018-05-31T13:43:56.234Z,5.60